sensor_id;sensor_type;location;lat;lon;timestamp;temperature;humidity
51719;DHT22;37795;53.236;5.704;2023-02-28T00:00:31;4.80;76.20
51719;DHT22;37795;53.236;5.704;2023-02-28T00:02:57;4.90;76.00
51719;DHT22;37795;53.236;5.704;2023-02-28T00:05:24;5.00;75.40
51719;DHT22;37795;53.236;5.704;2023-02-28T00:07:51;4.90;75.10
51719;DHT22;37795;53.236;5.704;2023-02-28T00:10:19;4.90;75.00
51719;DHT22;37795;53.236;5.704;2023-02-28T00:12:50;4.90;75.00
51719;DHT22;37795;53.236;5.704;2023-02-28T00:15:17;4.90;75.10
51719;DHT22;37795;53.236;5.704;2023-02-28T00:17:43;4.90;75.10
51719;DHT22;37795;53.236;5.704;2023-02-28T00:20:09;4.90;75.10
51719;DHT22;37795;53.236;5.704;2023-02-28T00:22:45;4.90;75.10
51719;DHT22;37795;53.236;5.704;2023-02-28T00:25:16;4.90;75.10
51719;DHT22;37795;53.236;5.704;2023-02-28T00:27:43;4.90;75.30
51719;DHT22;37795;53.236;5.704;2023-02-28T00:30:12;4.90;75.30
51719;DHT22;37795;53.236;5.704;2023-02-28T00:32:38;4.90;75.50
51719;DHT22;37795;53.236;5.704;2023-02-28T00:35:04;4.90;75.50
51719;DHT22;37795;53.236;5.704;2023-02-28T00:37:30;4.90;75.60
51719;DHT22;37795;53.236;5.704;2023-02-28T00:39:56;4.90;75.60
51719;DHT22;37795;53.236;5.704;2023-02-28T00:42:22;4.90;75.70
51719;DHT22;37795;53.236;5.704;2023-02-28T00:44:48;4.90;75.60
51719;DHT22;37795;53.236;5.704;2023-02-28T00:47:14;4.90;75.80
51719;DHT22;37795;53.236;5.704;2023-02-28T00:49:39;4.90;75.90
51719;DHT22;37795;53.236;5.704;2023-02-28T00:52:05;4.90;76.10
51719;DHT22;37795;53.236;5.704;2023-02-28T00:54:31;4.90;76.10
51719;DHT22;37795;53.236;5.704;2023-02-28T00:56:57;4.90;76.10
51719;DHT22;37795;53.236;5.704;2023-02-28T00:59:22;4.90;76.00
51719;DHT22;37795;53.236;5.704;2023-02-28T01:01:48;4.90;76.10
51719;DHT22;37795;53.236;5.704;2023-02-28T01:04:14;4.90;76.20
51719;DHT22;37795;53.236;5.704;2023-02-28T01:06:40;4.90;76.20
51719;DHT22;37795;53.236;5.704;2023-02-28T01:09:07;4.90;76.20
51719;DHT22;37795;53.236;5.704;2023-02-28T01:11:33;5.00;76.00
51719;DHT22;37795;53.236;5.704;2023-02-28T01:13:59;5.00;75.70
51719;DHT22;37795;53.236;5.704;2023-02-28T01:16:25;4.90;75.70
51719;DHT22;37795;53.236;5.704;2023-02-28T01:18:51;4.90;76.00
51719;DHT22;37795;53.236;5.704;2023-02-28T01:21:18;4.90;76.20
51719;DHT22;37795;53.236;5.704;2023-02-28T01:23:45;4.90;76.30
51719;DHT22;37795;53.236;5.704;2023-02-28T01:26:17;4.90;76.40
51719;DHT22;37795;53.236;5.704;2023-02-28T01:28:44;4.90;76.30
51719;DHT22;37795;53.236;5.704;2023-02-28T01:31:10;4.90;76.60
51719;DHT22;37795;53.236;5.704;2023-02-28T01:33:36;4.90;76.80
51719;DHT22;37795;53.236;5.704;2023-02-28T01:36:05;4.70;76.60
51719;DHT22;37795;53.236;5.704;2023-02-28T01:38:32;4.80;77.50
51719;DHT22;37795;53.236;5.704;2023-02-28T01:40:58;4.90;77.70
51719;DHT22;37795;53.236;5.704;2023-02-28T01:43:27;4.90;77.60
51719;DHT22;37795;53.236;5.704;2023-02-28T01:45:55;4.80;77.50
51719;DHT22;37795;53.236;5.704;2023-02-28T01:48:25;4.80;77.40
51719;DHT22;37795;53.236;5.704;2023-02-28T01:50:51;4.70;77.50
51719;DHT22;37795;53.236;5.704;2023-02-28T01:53:26;4.70;77.70
51719;DHT22;37795;53.236;5.704;2023-02-28T01:55:54;4.80;77.80
51719;DHT22;37795;53.236;5.704;2023-02-28T01:58:20;4.80;77.80
51719;DHT22;37795;53.236;5.704;2023-02-28T02:00:46;4.70;77.80
51719;DHT22;37795;53.236;5.704;2023-02-28T02:03:16;4.70;77.90
51719;DHT22;37795;53.236;5.704;2023-02-28T02:05:44;4.70;78.10
51719;DHT22;37795;53.236;5.704;2023-02-28T02:08:22;4.80;78.30
51719;DHT22;37795;53.236;5.704;2023-02-28T02:10:51;4.90;78.20
51719;DHT22;37795;53.236;5.704;2023-02-28T02:16:34;4.90;78.40
51719;DHT22;37795;53.236;5.704;2023-02-28T02:19:37;4.90;78.40
51719;DHT22;37795;53.236;5.704;2023-02-28T02:30:44;4.70;78.20
51719;DHT22;37795;53.236;5.704;2023-02-28T02:38:56;4.90;78.80
51719;DHT22;37795;53.236;5.704;2023-02-28T02:41:52;5.00;78.80
51719;DHT22;37795;53.236;5.704;2023-02-28T02:44:28;5.10;78.70
51719;DHT22;37795;53.236;5.704;2023-02-28T02:47:03;5.10;78.70
51719;DHT22;37795;53.236;5.704;2023-02-28T02:49:32;5.10;78.50
51719;DHT22;37795;53.236;5.704;2023-02-28T02:52:06;5.10;78.60
51719;DHT22;37795;53.236;5.704;2023-02-28T02:54:38;5.10;78.60
51719;DHT22;37795;53.236;5.704;2023-02-28T02:57:34;5.20;78.50
51719;DHT22;37795;53.236;5.704;2023-02-28T03:00:03;5.20;78.50
51719;DHT22;37795;53.236;5.704;2023-02-28T03:02:33;5.20;78.50
51719;DHT22;37795;53.236;5.704;2023-02-28T03:05:04;5.10;78.70
51719;DHT22;37795;53.236;5.704;2023-02-28T03:07:31;5.20;79.00
51719;DHT22;37795;53.236;5.704;2023-02-28T03:09:57;5.30;79.10
51719;DHT22;37795;53.236;5.704;2023-02-28T03:12:40;5.30;78.90
51719;DHT22;37795;53.236;5.704;2023-02-28T03:15:34;5.30;78.90
51719;DHT22;37795;53.236;5.704;2023-02-28T03:18:16;5.30;78.80
51719;DHT22;37795;53.236;5.704;2023-02-28T03:21:03;5.30;78.80
51719;DHT22;37795;53.236;5.704;2023-02-28T03:23:43;5.20;78.90
51719;DHT22;37795;53.236;5.704;2023-02-28T03:26:19;5.30;79.00
51719;DHT22;37795;53.236;5.704;2023-02-28T03:29:02;5.20;78.90
51719;DHT22;37795;53.236;5.704;2023-02-28T03:31:44;5.20;78.80
51719;DHT22;37795;53.236;5.704;2023-02-28T03:34:26;5.20;78.90
51719;DHT22;37795;53.236;5.704;2023-02-28T03:36:59;5.20;79.00
51719;DHT22;37795;53.236;5.704;2023-02-28T03:39:59;5.10;79.00
51719;DHT22;37795;53.236;5.704;2023-02-28T03:42:31;5.00;79.10
51719;DHT22;37795;53.236;5.704;2023-02-28T03:45:11;4.90;79.50
51719;DHT22;37795;53.236;5.704;2023-02-28T03:47:46;5.00;79.70
51719;DHT22;37795;53.236;5.704;2023-02-28T03:50:21;5.00;79.70
51719;DHT22;37795;53.236;5.704;2023-02-28T03:55:19;5.00;79.70
51719;DHT22;37795;53.236;5.704;2023-02-28T04:00:50;5.00;79.60
51719;DHT22;37795;53.236;5.704;2023-02-28T04:03:18;5.00;79.50
51719;DHT22;37795;53.236;5.704;2023-02-28T04:05:54;4.90;79.30
51719;DHT22;37795;53.236;5.704;2023-02-28T04:08:21;4.90;79.50
51719;DHT22;37795;53.236;5.704;2023-02-28T04:11:01;4.90;79.80
51719;DHT22;37795;53.236;5.704;2023-02-28T04:13:29;5.00;79.80
51719;DHT22;37795;53.236;5.704;2023-02-28T04:15:55;5.00;79.80
51719;DHT22;37795;53.236;5.704;2023-02-28T04:18:21;5.10;79.60
51719;DHT22;37795;53.236;5.704;2023-02-28T04:20:46;5.10;79.50
51719;DHT22;37795;53.236;5.704;2023-02-28T04:23:12;5.10;79.20
51719;DHT22;37795;53.236;5.704;2023-02-28T04:25:38;5.20;79.10
51719;DHT22;37795;53.236;5.704;2023-02-28T04:28:06;5.20;78.80
51719;DHT22;37795;53.236;5.704;2023-02-28T04:30:31;5.20;78.80
51719;DHT22;37795;53.236;5.704;2023-02-28T04:32:59;5.10;78.80
51719;DHT22;37795;53.236;5.704;2023-02-28T04:35:25;5.10;78.90
51719;DHT22;37795;53.236;5.704;2023-02-28T04:37:51;5.10;79.30
51719;DHT22;37795;53.236;5.704;2023-02-28T04:40:16;5.20;79.50
51719;DHT22;37795;53.236;5.704;2023-02-28T04:42:42;5.30;79.60
51719;DHT22;37795;53.236;5.704;2023-02-28T04:45:08;5.30;79.80
51719;DHT22;37795;53.236;5.704;2023-02-28T04:47:36;5.30;79.80
51719;DHT22;37795;53.236;5.704;2023-02-28T04:50:02;5.30;79.90
51719;DHT22;37795;53.236;5.704;2023-02-28T04:52:29;5.40;80.00
51719;DHT22;37795;53.236;5.704;2023-02-28T04:54:55;5.40;80.20
51719;DHT22;37795;53.236;5.704;2023-02-28T04:57:20;5.40;80.30
51719;DHT22;37795;53.236;5.704;2023-02-28T04:59:47;5.40;80.50
51719;DHT22;37795;53.236;5.704;2023-02-28T05:02:13;5.40;80.50
51719;DHT22;37795;53.236;5.704;2023-02-28T05:04:38;5.50;80.60
51719;DHT22;37795;53.236;5.704;2023-02-28T05:07:04;5.50;80.70
51719;DHT22;37795;53.236;5.704;2023-02-28T05:09:30;5.50;80.70
51719;DHT22;37795;53.236;5.704;2023-02-28T05:11:56;5.50;80.80
51719;DHT22;37795;53.236;5.704;2023-02-28T05:14:22;5.50;80.80
51719;DHT22;37795;53.236;5.704;2023-02-28T05:16:47;5.60;80.80
51719;DHT22;37795;53.236;5.704;2023-02-28T05:19:13;5.60;80.70
51719;DHT22;37795;53.236;5.704;2023-02-28T05:21:41;5.60;80.70
51719;DHT22;37795;53.236;5.704;2023-02-28T05:24:10;5.60;80.70
51719;DHT22;37795;53.236;5.704;2023-02-28T05:26:38;5.70;80.80
51719;DHT22;37795;53.236;5.704;2023-02-28T05:29:04;5.70;80.80
51719;DHT22;37795;53.236;5.704;2023-02-28T05:31:30;5.70;80.80
51719;DHT22;37795;53.236;5.704;2023-02-28T05:33:56;5.70;80.90
51719;DHT22;37795;53.236;5.704;2023-02-28T05:36:22;5.70;80.80
51719;DHT22;37795;53.236;5.704;2023-02-28T05:38:48;5.70;80.90
51719;DHT22;37795;53.236;5.704;2023-02-28T05:41:15;5.70;80.90
51719;DHT22;37795;53.236;5.704;2023-02-28T05:43:41;5.70;80.90
51719;DHT22;37795;53.236;5.704;2023-02-28T05:46:09;5.60;80.80
51719;DHT22;37795;53.236;5.704;2023-02-28T05:48:36;5.60;81.10
51719;DHT22;37795;53.236;5.704;2023-02-28T05:51:03;5.60;81.30
51719;DHT22;37795;53.236;5.704;2023-02-28T05:53:29;5.60;81.10
51719;DHT22;37795;53.236;5.704;2023-02-28T05:55:55;5.50;81.40
51719;DHT22;37795;53.236;5.704;2023-02-28T05:58:21;5.60;81.50
51719;DHT22;37795;53.236;5.704;2023-02-28T06:00:48;5.60;81.50
51719;DHT22;37795;53.236;5.704;2023-02-28T06:03:13;5.60;81.60
51719;DHT22;37795;53.236;5.704;2023-02-28T06:05:39;5.60;81.50
51719;DHT22;37795;53.236;5.704;2023-02-28T06:08:05;5.60;81.40
51719;DHT22;37795;53.236;5.704;2023-02-28T06:10:33;5.70;81.30
51719;DHT22;37795;53.236;5.704;2023-02-28T06:13:03;5.60;81.20
51719;DHT22;37795;53.236;5.704;2023-02-28T06:15:29;5.60;81.20
51719;DHT22;37795;53.236;5.704;2023-02-28T06:17:56;5.60;81.10
51719;DHT22;37795;53.236;5.704;2023-02-28T06:20:23;5.60;81.30
51719;DHT22;37795;53.236;5.704;2023-02-28T06:22:48;5.50;81.30
51719;DHT22;37795;53.236;5.704;2023-02-28T06:25:16;5.50;81.50
51719;DHT22;37795;53.236;5.704;2023-02-28T06:27:42;5.40;81.70
51719;DHT22;37795;53.236;5.704;2023-02-28T06:30:09;5.40;82.00
51719;DHT22;37795;53.236;5.704;2023-02-28T06:32:35;5.40;82.00
51719;DHT22;37795;53.236;5.704;2023-02-28T06:35:02;5.40;82.30
51719;DHT22;37795;53.236;5.704;2023-02-28T06:37:28;5.30;82.50
51719;DHT22;37795;53.236;5.704;2023-02-28T06:39:54;5.40;82.60
51719;DHT22;37795;53.236;5.704;2023-02-28T06:42:22;5.40;82.60
51719;DHT22;37795;53.236;5.704;2023-02-28T06:44:51;5.30;82.80
51719;DHT22;37795;53.236;5.704;2023-02-28T06:47:16;5.40;82.90
51719;DHT22;37795;53.236;5.704;2023-02-28T06:49:42;5.40;83.00
51719;DHT22;37795;53.236;5.704;2023-02-28T06:57:36;5.80;80.90
51719;DHT22;37795;53.236;5.704;2023-02-28T07:00:07;5.00;81.40
51719;DHT22;37795;53.236;5.704;2023-02-28T07:02:35;4.90;81.30
51719;DHT22;37795;53.236;5.704;2023-02-28T07:05:01;4.80;80.90
51719;DHT22;37795;53.236;5.704;2023-02-28T07:07:26;4.70;80.40
51719;DHT22;37795;53.236;5.704;2023-02-28T07:09:52;4.70;80.20
51719;DHT22;37795;53.236;5.704;2023-02-28T07:12:18;4.60;79.90
51719;DHT22;37795;53.236;5.704;2023-02-28T07:14:43;4.60;79.90
51719;DHT22;37795;53.236;5.704;2023-02-28T07:17:10;4.60;79.70
51719;DHT22;37795;53.236;5.704;2023-02-28T07:19:38;4.50;79.60
51719;DHT22;37795;53.236;5.704;2023-02-28T07:22:05;4.50;79.60
51719;DHT22;37795;53.236;5.704;2023-02-28T07:24:30;4.50;79.60
51719;DHT22;37795;53.236;5.704;2023-02-28T07:26:56;4.50;79.50
51719;DHT22;37795;53.236;5.704;2023-02-28T07:29:22;4.40;79.20
51719;DHT22;37795;53.236;5.704;2023-02-28T07:31:48;4.30;79.20
51719;DHT22;37795;53.236;5.704;2023-02-28T07:34:15;4.30;79.10
51719;DHT22;37795;53.236;5.704;2023-02-28T07:36:41;4.20;79.10
51719;DHT22;37795;53.236;5.704;2023-02-28T07:39:07;4.20;79.00
51719;DHT22;37795;53.236;5.704;2023-02-28T07:41:34;4.20;79.00
51719;DHT22;37795;53.236;5.704;2023-02-28T07:44:04;4.20;79.10
51719;DHT22;37795;53.236;5.704;2023-02-28T07:46:30;4.10;78.90
51719;DHT22;37795;53.236;5.704;2023-02-28T07:49:00;4.10;79.00
51719;DHT22;37795;53.236;5.704;2023-02-28T07:51:28;4.10;79.00
51719;DHT22;37795;53.236;5.704;2023-02-28T07:53:55;4.10;78.90
51719;DHT22;37795;53.236;5.704;2023-02-28T07:56:21;4.00;78.90
51719;DHT22;37795;53.236;5.704;2023-02-28T07:58:46;4.00;78.90
51719;DHT22;37795;53.236;5.704;2023-02-28T08:01:13;4.00;79.00
51719;DHT22;37795;53.236;5.704;2023-02-28T08:03:39;4.00;79.00
51719;DHT22;37795;53.236;5.704;2023-02-28T08:06:07;4.00;79.00
51719;DHT22;37795;53.236;5.704;2023-02-28T08:08:33;4.00;79.00
51719;DHT22;37795;53.236;5.704;2023-02-28T08:11:00;4.00;79.00
51719;DHT22;37795;53.236;5.704;2023-02-28T08:13:27;4.00;78.80
51719;DHT22;37795;53.236;5.704;2023-02-28T08:15:54;4.00;79.00
51719;DHT22;37795;53.236;5.704;2023-02-28T08:18:20;3.90;79.00
51719;DHT22;37795;53.236;5.704;2023-02-28T08:20:46;3.90;79.30
51719;DHT22;37795;53.236;5.704;2023-02-28T08:23:12;3.90;79.20
51719;DHT22;37795;53.236;5.704;2023-02-28T08:25:38;3.90;79.40
51719;DHT22;37795;53.236;5.704;2023-02-28T08:28:04;3.90;79.20
51719;DHT22;37795;53.236;5.704;2023-02-28T08:30:30;3.90;79.20
51719;DHT22;37795;53.236;5.704;2023-02-28T08:32:55;3.90;79.20
51719;DHT22;37795;53.236;5.704;2023-02-28T08:35:22;3.90;79.10
51719;DHT22;37795;53.236;5.704;2023-02-28T08:37:48;3.90;79.20
51719;DHT22;37795;53.236;5.704;2023-02-28T08:40:15;3.90;79.10
51719;DHT22;37795;53.236;5.704;2023-02-28T08:42:47;3.90;79.30
51719;DHT22;37795;53.236;5.704;2023-02-28T08:45:14;4.00;79.40
51719;DHT22;37795;53.236;5.704;2023-02-28T08:47:40;3.90;79.30
51719;DHT22;37795;53.236;5.704;2023-02-28T08:50:07;4.00;79.30
51719;DHT22;37795;53.236;5.704;2023-02-28T08:52:33;4.00;79.30
51719;DHT22;37795;53.236;5.704;2023-02-28T08:54:58;4.10;79.30
51719;DHT22;37795;53.236;5.704;2023-02-28T08:57:24;4.10;79.10
51719;DHT22;37795;53.236;5.704;2023-02-28T08:59:53;4.10;78.80
51719;DHT22;37795;53.236;5.704;2023-02-28T09:02:19;4.10;78.70
51719;DHT22;37795;53.236;5.704;2023-02-28T09:04:45;4.20;78.60
51719;DHT22;37795;53.236;5.704;2023-02-28T09:07:11;4.00;78.10
51719;DHT22;37795;53.236;5.704;2023-02-28T09:09:37;4.10;78.90
51719;DHT22;37795;53.236;5.704;2023-02-28T09:12:03;4.30;78.90
51719;DHT22;37795;53.236;5.704;2023-02-28T09:14:30;4.40;78.70
51719;DHT22;37795;53.236;5.704;2023-02-28T09:16:56;4.00;78.90
51719;DHT22;37795;53.236;5.704;2023-02-28T09:19:22;4.20;79.30
51719;DHT22;37795;53.236;5.704;2023-02-28T09:21:47;4.30;78.90
51719;DHT22;37795;53.236;5.704;2023-02-28T09:24:13;4.30;78.30
51719;DHT22;37795;53.236;5.704;2023-02-28T09:26:40;4.30;78.60
51719;DHT22;37795;53.236;5.704;2023-02-28T09:29:06;4.30;78.30
51719;DHT22;37795;53.236;5.704;2023-02-28T09:31:32;4.40;78.70
51719;DHT22;37795;53.236;5.704;2023-02-28T09:33:58;4.50;78.40
51719;DHT22;37795;53.236;5.704;2023-02-28T09:36:26;4.50;77.90
51719;DHT22;37795;53.236;5.704;2023-02-28T09:38:52;4.40;78.40
51719;DHT22;37795;53.236;5.704;2023-02-28T09:41:23;4.50;78.30
51719;DHT22;37795;53.236;5.704;2023-02-28T09:43:55;4.50;78.10
51719;DHT22;37795;53.236;5.704;2023-02-28T09:46:29;4.60;78.00
51719;DHT22;37795;53.236;5.704;2023-02-28T09:48:57;4.70;77.80
51719;DHT22;37795;53.236;5.704;2023-02-28T09:54:16;4.50;77.10
51719;DHT22;37795;53.236;5.704;2023-02-28T09:56:53;4.40;77.40
51719;DHT22;37795;53.236;5.704;2023-02-28T10:02:41;4.50;78.60
51719;DHT22;37795;53.236;5.704;2023-02-28T10:05:09;4.70;78.30
51719;DHT22;37795;53.236;5.704;2023-02-28T10:10:41;4.80;77.30
51719;DHT22;37795;53.236;5.704;2023-02-28T10:16:46;4.90;76.70
51719;DHT22;37795;53.236;5.704;2023-02-28T10:22:15;5.00;76.00
51719;DHT22;37795;53.236;5.704;2023-02-28T10:24:48;5.10;75.70
51719;DHT22;37795;53.236;5.704;2023-02-28T10:27:17;5.00;75.10
51719;DHT22;37795;53.236;5.704;2023-02-28T10:29:46;5.10;75.20
51719;DHT22;37795;53.236;5.704;2023-02-28T10:32:16;5.00;74.90
51719;DHT22;37795;53.236;5.704;2023-02-28T10:34:44;4.70;73.90
51719;DHT22;37795;53.236;5.704;2023-02-28T10:37:11;5.00;75.20
51719;DHT22;37795;53.236;5.704;2023-02-28T10:39:45;4.30;74.70
51719;DHT22;37795;53.236;5.704;2023-02-28T10:42:25;4.20;74.90
51719;DHT22;37795;53.236;5.704;2023-02-28T10:45:15;4.30;75.80
51719;DHT22;37795;53.236;5.704;2023-02-28T10:47:56;5.00;76.50
51719;DHT22;37795;53.236;5.704;2023-02-28T10:57:34;6.40;68.90
51719;DHT22;37795;53.236;5.704;2023-02-28T11:00:31;6.40;67.40
51719;DHT22;37795;53.236;5.704;2023-02-28T11:02:57;5.70;66.70
51719;DHT22;37795;53.236;5.704;2023-02-28T11:05:31;5.40;68.70
51719;DHT22;37795;53.236;5.704;2023-02-28T11:08:17;5.70;68.30
51719;DHT22;37795;53.236;5.704;2023-02-28T11:10:53;6.10;68.80
51719;DHT22;37795;53.236;5.704;2023-02-28T11:13:20;6.40;67.00
51719;DHT22;37795;53.236;5.704;2023-02-28T11:15:53;6.70;67.40
51719;DHT22;37795;53.236;5.704;2023-02-28T11:18:33;7.10;66.80
51719;DHT22;37795;53.236;5.704;2023-02-28T11:21:02;7.10;63.10
51719;DHT22;37795;53.236;5.704;2023-02-28T11:23:30;5.70;64.10
51719;DHT22;37795;53.236;5.704;2023-02-28T11:26:00;5.90;65.80
51719;DHT22;37795;53.236;5.704;2023-02-28T11:28:32;6.10;65.60
51719;DHT22;37795;53.236;5.704;2023-02-28T11:33:47;6.90;62.70
51719;DHT22;37795;53.236;5.704;2023-02-28T11:38:44;6.80;61.90
51719;DHT22;37795;53.236;5.704;2023-02-28T11:41:26;6.60;63.10
51719;DHT22;37795;53.236;5.704;2023-02-28T11:44:05;6.60;62.90
51719;DHT22;37795;53.236;5.704;2023-02-28T11:46:48;7.10;62.80
51719;DHT22;37795;53.236;5.704;2023-02-28T11:54:59;7.20;62.60
51719;DHT22;37795;53.236;5.704;2023-02-28T11:57:59;7.50;62.40
51719;DHT22;37795;53.236;5.704;2023-02-28T12:06:09;7.90;61.00
51719;DHT22;37795;53.236;5.704;2023-02-28T12:09:01;7.90;58.60
51719;DHT22;37795;53.236;5.704;2023-02-28T12:11:35;7.90;59.30
51719;DHT22;37795;53.236;5.704;2023-02-28T12:28:12;8.30;56.10
51719;DHT22;37795;53.236;5.704;2023-02-28T12:30:46;7.90;57.50
51719;DHT22;37795;53.236;5.704;2023-02-28T12:33:16;8.40;58.40
51719;DHT22;37795;53.236;5.704;2023-02-28T12:36:00;8.40;58.50
51719;DHT22;37795;53.236;5.704;2023-02-28T12:38:29;8.70;57.60
51719;DHT22;37795;53.236;5.704;2023-02-28T12:41:15;8.40;56.30
51719;DHT22;37795;53.236;5.704;2023-02-28T12:43:45;8.10;58.60
51719;DHT22;37795;53.236;5.704;2023-02-28T12:46:23;8.20;59.30
51719;DHT22;37795;53.236;5.704;2023-02-28T12:48:53;8.50;58.40
51719;DHT22;37795;53.236;5.704;2023-02-28T12:51:22;8.50;57.70
51719;DHT22;37795;53.236;5.704;2023-02-28T12:56:35;8.10;59.20
51719;DHT22;37795;53.236;5.704;2023-02-28T13:04:34;8.50;59.60
51719;DHT22;37795;53.236;5.704;2023-02-28T13:09:40;9.20;57.70
51719;DHT22;37795;53.236;5.704;2023-02-28T13:12:15;9.10;60.30
51719;DHT22;37795;53.236;5.704;2023-02-28T13:14:42;9.40;59.50
51719;DHT22;37795;53.236;5.704;2023-02-28T13:19:43;10.40;56.60
51719;DHT22;37795;53.236;5.704;2023-02-28T13:22:19;10.70;55.80
51719;DHT22;37795;53.236;5.704;2023-02-28T13:24:47;10.90;54.80
51719;DHT22;37795;53.236;5.704;2023-02-28T13:29:41;11.60;54.70
51719;DHT22;37795;53.236;5.704;2023-02-28T13:39:55;12.40;51.70
51719;DHT22;37795;53.236;5.704;2023-02-28T13:47:40;13.00;50.90
51719;DHT22;37795;53.236;5.704;2023-02-28T13:58:19;12.60;53.60
51719;DHT22;37795;53.236;5.704;2023-02-28T14:06:28;12.60;54.30
51719;DHT22;37795;53.236;5.704;2023-02-28T14:11:44;13.20;51.20
51719;DHT22;37795;53.236;5.704;2023-02-28T14:17:03;13.70;52.80
51719;DHT22;37795;53.236;5.704;2023-02-28T14:19:31;13.90;51.00
51719;DHT22;37795;53.236;5.704;2023-02-28T14:33:19;14.80;47.50
51719;DHT22;37795;53.236;5.704;2023-02-28T14:38:36;14.70;49.70
51719;DHT22;37795;53.236;5.704;2023-02-28T14:41:13;14.80;48.30
51719;DHT22;37795;53.236;5.704;2023-02-28T14:43:48;14.30;49.70
51719;DHT22;37795;53.236;5.704;2023-02-28T14:46:15;14.20;48.40
51719;DHT22;37795;53.236;5.704;2023-02-28T14:48:46;14.10;50.70
51719;DHT22;37795;53.236;5.704;2023-02-28T14:51:13;13.90;50.90
51719;DHT22;37795;53.236;5.704;2023-02-28T14:53:43;13.70;51.00
51719;DHT22;37795;53.236;5.704;2023-02-28T14:56:44;12.80;55.90
51719;DHT22;37795;53.236;5.704;2023-02-28T14:59:29;12.60;56.80
51719;DHT22;37795;53.236;5.704;2023-02-28T15:02:20;12.30;56.70
51719;DHT22;37795;53.236;5.704;2023-02-28T15:04:56;12.10;57.80
51719;DHT22;37795;53.236;5.704;2023-02-28T15:07:23;11.90;59.10
51719;DHT22;37795;53.236;5.704;2023-02-28T15:15:01;11.80;59.60
51719;DHT22;37795;53.236;5.704;2023-02-28T15:17:28;11.30;59.90
51719;DHT22;37795;53.236;5.704;2023-02-28T15:19:54;11.30;59.30
51719;DHT22;37795;53.236;5.704;2023-02-28T15:22:27;11.30;60.00
51719;DHT22;37795;53.236;5.704;2023-02-28T15:24:56;11.20;60.30
51719;DHT22;37795;53.236;5.704;2023-02-28T15:27:31;11.70;59.70
51719;DHT22;37795;53.236;5.704;2023-02-28T15:32:36;13.20;56.80
51719;DHT22;37795;53.236;5.704;2023-02-28T15:37:56;13.00;56.20
51719;DHT22;37795;53.236;5.704;2023-02-28T15:40:31;12.90;57.00
51719;DHT22;37795;53.236;5.704;2023-02-28T15:45:37;12.80;57.60
51719;DHT22;37795;53.236;5.704;2023-02-28T15:48:05;12.60;56.60
51719;DHT22;37795;53.236;5.704;2023-02-28T15:50:37;12.80;56.00
51719;DHT22;37795;53.236;5.704;2023-02-28T15:53:03;12.90;56.80
51719;DHT22;37795;53.236;5.704;2023-02-28T15:55:29;13.30;55.80
51719;DHT22;37795;53.236;5.704;2023-02-28T15:58:01;13.90;54.00
51719;DHT22;37795;53.236;5.704;2023-02-28T16:00:31;14.70;52.70
51719;DHT22;37795;53.236;5.704;2023-02-28T16:02:59;15.50;51.10
51719;DHT22;37795;53.236;5.704;2023-02-28T16:05:28;16.20;50.50
51719;DHT22;37795;53.236;5.704;2023-02-28T16:08:00;16.60;48.90
51719;DHT22;37795;53.236;5.704;2023-02-28T16:10:28;17.10;48.50
51719;DHT22;37795;53.236;5.704;2023-02-28T16:12:55;17.50;46.70
51719;DHT22;37795;53.236;5.704;2023-02-28T16:15:22;17.40;46.80
51719;DHT22;37795;53.236;5.704;2023-02-28T16:17:49;17.30;46.70
51719;DHT22;37795;53.236;5.704;2023-02-28T16:20:19;16.70;47.70
51719;DHT22;37795;53.236;5.704;2023-02-28T16:22:45;16.20;47.90
51719;DHT22;37795;53.236;5.704;2023-02-28T16:25:15;15.40;48.80
51719;DHT22;37795;53.236;5.704;2023-02-28T16:27:43;15.10;49.00
51719;DHT22;37795;53.236;5.704;2023-02-28T16:30:21;14.00;50.70
51719;DHT22;37795;53.236;5.704;2023-02-28T16:32:47;13.50;51.30
51719;DHT22;37795;53.236;5.704;2023-02-28T16:35:14;12.70;52.30
51719;DHT22;37795;53.236;5.704;2023-02-28T16:42:47;11.00;55.40
51719;DHT22;37795;53.236;5.704;2023-02-28T16:45:32;10.80;55.40
51719;DHT22;37795;53.236;5.704;2023-02-28T16:47:57;10.40;56.00
51719;DHT22;37795;53.236;5.704;2023-02-28T16:50:26;10.00;56.90
51719;DHT22;37795;53.236;5.704;2023-02-28T16:52:52;9.60;57.80
51719;DHT22;37795;53.236;5.704;2023-02-28T16:55:20;9.40;57.80
51719;DHT22;37795;53.236;5.704;2023-02-28T16:57:58;9.10;58.20
51719;DHT22;37795;53.236;5.704;2023-02-28T17:00:25;8.90;58.70
51719;DHT22;37795;53.236;5.704;2023-02-28T17:02:51;8.20;59.60
51719;DHT22;37795;53.236;5.704;2023-02-28T17:05:17;7.70;61.00
51719;DHT22;37795;53.236;5.704;2023-02-28T17:07:45;7.60;61.80
51719;DHT22;37795;53.236;5.704;2023-02-28T17:12:36;7.10;62.50
51719;DHT22;37795;53.236;5.704;2023-02-28T17:15:02;7.00;63.30
51719;DHT22;37795;53.236;5.704;2023-02-28T17:17:28;7.10;63.20
51719;DHT22;37795;53.236;5.704;2023-02-28T17:19:54;7.10;62.90
51719;DHT22;37795;53.236;5.704;2023-02-28T17:22:20;7.10;62.70
51719;DHT22;37795;53.236;5.704;2023-02-28T17:24:46;6.60;62.50
51719;DHT22;37795;53.236;5.704;2023-02-28T17:27:12;6.00;63.30
51719;DHT22;37795;53.236;5.704;2023-02-28T17:29:38;5.60;65.30
51719;DHT22;37795;53.236;5.704;2023-02-28T17:32:04;5.80;66.60
51719;DHT22;37795;53.236;5.704;2023-02-28T17:34:30;6.00;67.10
51719;DHT22;37795;53.236;5.704;2023-02-28T17:36:56;6.10;66.90
51719;DHT22;37795;53.236;5.704;2023-02-28T17:39:21;6.10;66.60
51719;DHT22;37795;53.236;5.704;2023-02-28T17:41:53;6.10;66.50
51719;DHT22;37795;53.236;5.704;2023-02-28T17:44:20;5.80;66.30
51719;DHT22;37795;53.236;5.704;2023-02-28T17:46:47;5.20;65.60
51719;DHT22;37795;53.236;5.704;2023-02-28T17:49:13;5.10;66.70
51719;DHT22;37795;53.236;5.704;2023-02-28T17:51:39;5.30;66.90
51719;DHT22;37795;53.236;5.704;2023-02-28T17:54:04;5.20;66.80
51719;DHT22;37795;53.236;5.704;2023-02-28T17:56:30;5.00;66.50
51719;DHT22;37795;53.236;5.704;2023-02-28T17:58:57;4.60;66.80
51719;DHT22;37795;53.236;5.704;2023-02-28T18:01:23;4.30;67.30
51719;DHT22;37795;53.236;5.704;2023-02-28T18:03:53;4.50;68.40
51719;DHT22;37795;53.236;5.704;2023-02-28T18:06:21;4.50;68.40
51719;DHT22;37795;53.236;5.704;2023-02-28T18:08:48;4.50;68.50
51719;DHT22;37795;53.236;5.704;2023-02-28T18:11:17;4.50;68.80
51719;DHT22;37795;53.236;5.704;2023-02-28T18:13:47;4.50;69.00
51719;DHT22;37795;53.236;5.704;2023-02-28T18:16:15;4.50;69.10
51719;DHT22;37795;53.236;5.704;2023-02-28T18:18:41;4.60;69.50
51719;DHT22;37795;53.236;5.704;2023-02-28T18:21:09;4.20;68.30
51719;DHT22;37795;53.236;5.704;2023-02-28T18:23:35;3.50;69.30
51719;DHT22;37795;53.236;5.704;2023-02-28T18:26:04;3.50;70.60
51719;DHT22;37795;53.236;5.704;2023-02-28T18:28:31;3.70;71.10
51719;DHT22;37795;53.236;5.704;2023-02-28T18:31:05;3.80;70.50
51719;DHT22;37795;53.236;5.704;2023-02-28T18:33:31;4.00;70.20
51719;DHT22;37795;53.236;5.704;2023-02-28T18:35:56;4.00;69.50
51719;DHT22;37795;53.236;5.704;2023-02-28T18:38:22;3.80;69.20
51719;DHT22;37795;53.236;5.704;2023-02-28T18:40:52;4.00;69.20
51719;DHT22;37795;53.236;5.704;2023-02-28T18:43:18;4.00;69.10